Time;durP1;ratioP1;P1;durP2;ratioP2;P2;SDS_P1;SDS_P2;PMS_P1;PMS_P2;Temp;Humidity;BMP_temperature;BMP_pressure;BME280_temperature;BME280_humidity;BME280_pressure;Samples;Min_cycle;Max_cycle;Signal;HPM_P1;HPM_P2
2022/09/13 00:01:51;;;;;;;14.75;11.27;;;18.30;99.90;;;;;;5004214;28;20523;-76
2022/09/13 00:04:17;;;;;;;17.00;10.60;;;18.30;99.90;;;;;;5006109;28;20107;-76
2022/09/13 00:06:42;;;;;;;12.38;9.63;;;18.10;99.90;;;;;;5015219;28;20040;-76
2022/09/13 00:09:08;;;;;;;13.68;9.45;;;18.30;99.90;;;;;;5018941;28;20088;-76
2022/09/13 00:11:34;;;;;;;12.30;9.35;;;18.30;99.90;;;;;;5013605;28;20056;-75
2022/09/13 00:13:59;;;;;;;13.23;9.65;;;18.20;99.90;;;;;;5028048;28;20044;-75
2022/09/13 00:16:26;;;;;;;11.93;9.45;;;18.20;99.90;;;;;;5024585;28;20045;-76
2022/09/13 00:18:53;;;;;;;13.38;9.40;;;18.20;99.90;;;;;;5025177;28;20056;-76
2022/09/13 00:21:21;;;;;;;15.02;10.45;;;18.20;99.90;;;;;;5013283;28;20081;-76
2022/09/13 00:23:50;;;;;;;11.88;9.45;;;18.20;99.90;;;;;;5021204;28;20089;-76
2022/09/13 00:26:19;;;;;;;12.13;9.65;;;18.10;99.90;;;;;;5010964;28;20077;-76
2022/09/13 00:28:47;;;;;;;14.48;10.32;;;18.10;99.90;;;;;;5016302;28;20042;-76
2022/09/13 00:31:13;;;;;;;14.10;10.48;;;18.10;99.90;;;;;;5013629;28;20042;-76
2022/09/13 00:33:38;;;;;;;13.60;9.98;;;18.10;99.90;;;;;;5001819;28;20092;-76
2022/09/13 00:36:09;;;;;;;14.25;10.32;;;18.00;99.90;;;;;;5013512;28;20200;-76
2022/09/13 00:38:37;;;;;;;15.13;11.15;;;18.00;99.90;;;;;;5017575;28;20084;-76
2022/09/13 00:41:04;;;;;;;15.20;11.15;;;17.90;99.90;;;;;;5015973;28;20037;-76
2022/09/13 00:44:25;;;;;;;14.57;11.00;;;18.00;99.90;;;;;;5024150;28;20372;-76
2022/09/13 00:46:51;;;;;;;15.98;10.50;;;18.00;99.90;;;;;;4972849;28;20487;-76
2022/09/13 00:49:22;;;;;;;15.15;11.25;;;18.00;99.90;;;;;;5010566;28;20081;-76
2022/09/13 00:51:54;;;;;;;15.37;11.37;;;18.00;99.90;;;;;;4997012;28;20042;-76
2022/09/13 00:54:23;;;;;;;17.88;11.70;;;18.00;99.90;;;;;;5021488;28;20396;-76
2022/09/13 00:56:54;;;;;;;13.75;11.32;;;18.00;99.90;;;;;;5010942;28;20104;-76
2022/09/13 00:59:30;;;;;;;16.98;12.57;;;18.00;99.90;;;;;;5019768;28;20042;-76
2022/09/13 01:01:57;;;;;;;14.32;12.35;;;18.00;99.90;;;;;;5021227;28;20083;-76
2022/09/13 01:04:27;;;;;;;14.95;11.95;;;18.00;99.90;;;;;;5012667;28;20041;-76
2022/09/13 01:07:02;;;;;;;17.15;13.30;;;17.90;99.90;;;;;;4999729;28;20164;-76
2022/09/13 01:09:32;;;;;;;16.92;12.38;;;17.90;99.90;;;;;;5023265;28;20132;-76
2022/09/13 01:12:03;;;;;;;16.33;12.98;;;17.90;99.90;;;;;;4987520;28;20049;-76
2022/09/13 01:14:30;;;;;;;16.17;12.65;;;17.90;99.90;;;;;;5011364;28;20369;-76
2022/09/13 01:16:56;;;;;;;15.15;12.13;;;17.90;99.90;;;;;;5012902;28;20044;-76
2022/09/13 01:19:23;;;;;;;16.13;12.25;;;17.90;99.90;;;;;;4991394;28;20049;-76
2022/09/13 01:22:25;;;;;;;18.30;12.45;;;17.90;99.90;;;;;;5019127;28;20034;-76
2022/09/13 01:24:51;;;;;;;15.02;11.85;;;17.90;99.90;;;;;;5012975;28;20095;-76
2022/09/13 01:27:30;;;;;;;16.17;13.18;;;17.90;99.90;;;;;;5013142;28;20049;-76
2022/09/13 01:30:19;;;;;;;16.23;13.27;;;17.80;99.90;;;;;;5002015;28;20111;-76
2022/09/13 01:33:21;;;;;;;16.35;13.05;;;17.80;99.90;;;;;;5012554;28;20400;-76
2022/09/13 01:36:16;;;;;;;15.05;12.00;;;17.80;99.90;;;;;;5003719;28;20055;-76
2022/09/13 01:38:50;;;;;;;14.50;12.32;;;17.80;99.90;;;;;;5011130;28;20493;-76
2022/09/13 01:41:45;;;;;;;21.48;14.32;;;17.80;99.90;;;;;;5010345;28;20060;-76
2022/09/13 01:44:51;;;;;;;15.73;13.00;;;17.80;99.90;;;;;;4996969;28;20045;-76
2022/09/13 01:47:28;;;;;;;18.95;14.88;;;17.80;99.90;;;;;;5001288;28;20041;-78
2022/09/13 01:50:32;;;;;;;19.90;14.18;;;17.80;99.90;;;;;;5014417;28;20535;-78
2022/09/13 01:53:25;;;;;;;19.40;14.77;;;17.80;99.90;;;;;;5006910;28;20045;-75
2022/09/13 01:56:03;;;;;;;19.83;14.98;;;17.80;99.90;;;;;;5011373;28;20124;-76
2022/09/13 01:58:48;;;;;;;22.67;15.90;;;17.80;99.90;;;;;;5012872;28;20413;-75
2022/09/13 02:01:23;;;;;;;21.05;15.93;;;17.80;99.90;;;;;;5013185;28;20518;-78
2022/09/13 02:04:28;;;;;;;21.48;15.85;;;17.80;99.90;;;;;;5010910;28;20038;-78
2022/09/13 02:07:13;;;;;;;19.55;15.93;;;17.80;99.90;;;;;;5000188;28;20054;-77
2022/09/13 02:09:43;;;;;;;22.52;16.50;;;17.80;99.90;;;;;;4996079;28;20037;-77
2022/09/13 02:12:19;;;;;;;22.58;16.10;;;17.90;99.90;;;;;;4999576;28;20025;-76
2022/09/13 02:14:53;;;;;;;20.63;16.58;;;18.00;99.90;;;;;;5018810;28;20105;-77
2022/09/13 02:17:25;;;;;;;21.35;17.02;;;17.80;99.90;;;;;;5012872;28;20046;-77
2022/09/13 02:19:57;;;;;;;23.20;16.88;;;17.70;99.90;;;;;;4993299;28;20125;-77
2022/09/13 02:22:30;;;;;;;;;;;17.80;99.90;;;;;;5003878;28;20044;-77
2022/09/13 02:25:06;;;;;;;21.45;16.45;;;17.80;99.90;;;;;;4987414;28;19967;-77
2022/09/13 02:27:36;;;;;;;22.52;17.17;;;17.80;99.90;;;;;;5001119;28;20049;-77
2022/09/13 02:30:07;;;;;;;22.23;17.55;;;17.70;99.90;;;;;;5016214;28;20041;-77
2022/09/13 02:33:03;;;;;;;21.08;16.48;;;17.70;99.90;;;;;;5009556;28;20049;-76
2022/09/13 02:35:41;;;;;;;24.33;17.92;;;17.70;99.90;;;;;;5021915;28;20037;-76
2022/09/13 02:38:15;;;;;;;21.90;16.88;;;17.70;99.90;;;;;;5012569;28;20124;-76
2022/09/13 02:41:18;;;;;;;21.75;17.50;;;17.70;99.90;;;;;;5014710;28;20064;-77
2022/09/13 02:43:59;;;;;;;22.75;16.38;;;17.70;99.90;;;;;;5001897;28;20496;-76
2022/09/13 02:46:48;;;;;;;22.45;16.42;;;17.70;99.90;;;;;;5005927;28;20044;-78
2022/09/13 02:49:25;;;;;;;23.10;17.38;;;17.70;99.90;;;;;;5019342;28;20116;-78
2022/09/13 02:51:56;;;;;;;22.05;15.75;;;17.70;99.90;;;;;;5008635;28;20092;-78
2022/09/13 02:54:47;;;;;;;22.80;17.05;;;17.70;99.90;;;;;;5021318;28;20127;-77
2022/09/13 02:57:38;;;;;;;20.30;15.70;;;17.70;99.90;;;;;;4991185;28;20400;-78
2022/09/13 03:00:04;;;;;;;20.00;15.75;;;17.70;99.90;;;;;;5021173;28;20045;-78
2022/09/13 03:02:37;;;;;;;23.25;16.23;;;17.70;99.90;;;;;;5016977;28;20038;-78
2022/09/13 03:05:04;;;;;;;22.63;17.00;;;17.70;99.90;;;;;;4996586;28;20034;-78
2022/09/13 03:07:29;;;;;;;22.50;16.73;;;17.70;99.90;;;;;;5008942;28;20051;-78
2022/09/13 03:10:00;;;;;;;23.75;16.83;;;17.70;99.90;;;;;;5022564;28;20042;-78
2022/09/13 03:13:04;;;;;;;22.75;17.67;;;17.70;99.90;;;;;;5013819;28;20070;-78
2022/09/13 03:16:03;;;;;;;23.17;17.15;;;17.70;99.90;;;;;;4996879;28;20420;-78
2022/09/13 03:18:50;;;;;;;25.13;16.88;;;17.70;99.90;;;;;;4996618;28;20038;-78
2022/09/13 03:21:43;;;;;;;23.20;17.42;;;17.70;99.90;;;;;;5037680;28;20029;-77
2022/09/13 03:24:36;;;;;;;24.27;18.00;;;17.70;99.90;;;;;;5019738;28;20045;-77
2022/09/13 03:27:29;;;;;;;24.15;17.60;;;17.70;99.90;;;;;;5001294;28;20502;-77
2022/09/13 03:30:03;;;;;;;24.75;18.25;;;17.70;99.90;;;;;;5026881;28;20373;-77
2022/09/13 03:32:39;;;;;;;24.20;18.05;;;17.70;99.90;;;;;;4994901;28;20041;-77
2022/09/13 03:35:26;;;;;;;25.85;19.25;;;17.90;99.90;;;;;;4991052;28;20076;-77
2022/09/13 03:38:12;;;;;;;25.98;18.73;;;17.70;99.90;;;;;;5023036;28;20046;-76
2022/09/13 03:40:53;;;;;;;26.58;18.88;;;17.60;99.90;;;;;;5004100;28;20061;-76
2022/09/13 03:43:29;;;;;;;28.60;19.13;;;17.70;99.90;;;;;;5020196;28;20511;-76
2022/09/13 03:46:14;;;;;;;25.30;19.48;;;17.80;99.90;;;;;;4994023;28;20029;-76
2022/09/13 03:48:41;;;;;;;28.80;19.65;;;17.70;99.90;;;;;;5021948;28;20291;-76
2022/09/13 03:51:08;;;;;;;25.60;18.10;;;17.80;99.90;;;;;;5021779;28;20034;-76
2022/09/13 03:53:39;;;;;;;25.35;18.33;;;17.70;99.90;;;;;;5012291;28;20431;-78
2022/09/13 03:56:13;;;;;;;25.75;19.98;;;17.70;99.90;;;;;;4999111;28;20113;-76
2022/09/13 03:58:40;;;;;;;25.30;19.02;;;17.70;99.90;;;;;;5006202;28;20038;-76
2022/09/13 04:01:05;;;;;;;26.13;19.10;;;17.80;99.90;;;;;;5004959;28;20045;-77
2022/09/13 04:03:31;;;;;;;31.60;20.40;;;17.70;99.90;;;;;;5020995;28;20045;-76
2022/09/13 04:05:57;;;;;;;25.25;18.88;;;17.70;99.90;;;;;;5021258;28;20684;-77
2022/09/13 04:08:23;;;;;;;25.33;20.02;;;17.70;99.90;;;;;;5012717;28;20038;-77
2022/09/13 04:10:51;;;;;;;26.25;18.15;;;17.80;99.90;;;;;;5003332;28;20046;-77
2022/09/13 04:13:19;;;;;;;26.50;19.23;;;17.70;99.90;;;;;;4999760;28;20045;-77
2022/09/13 04:15:49;;;;;;;26.60;19.27;;;17.70;99.90;;;;;;4995982;28;20041;-76
2022/09/13 04:18:15;;;;;;;28.95;19.10;;;17.70;99.90;;;;;;5011327;28;20555;-76
2022/09/13 04:20:41;;;;;;;27.08;19.40;;;17.70;99.90;;;;;;5014305;28;20044;-76
2022/09/13 04:23:08;;;;;;;25.70;19.20;;;17.70;99.90;;;;;;5014368;28;20034;-77
2022/09/13 04:25:43;;;;;;;28.38;19.65;;;17.70;99.90;;;;;;4992888;28;20527;-77
2022/09/13 04:28:09;;;;;;;26.73;19.67;;;17.70;99.90;;;;;;5007626;28;20041;-77
2022/09/13 04:30:34;;;;;;;32.50;20.13;;;17.70;99.90;;;;;;5020449;28;20091;-78
2022/09/13 04:33:00;;;;;;;25.63;19.23;;;17.70;99.90;;;;;;5001872;28;20440;-78
2022/09/13 04:35:26;;;;;;;24.83;18.65;;;17.80;99.90;;;;;;5016515;28;20084;-77
2022/09/13 04:37:55;;;;;;;27.38;19.30;;;17.70;99.90;;;;;;5020142;28;20507;-78
2022/09/13 04:40:22;;;;;;;25.65;19.45;;;17.70;99.90;;;;;;5018029;28;20581;-78
2022/09/13 04:42:48;;;;;;;25.58;19.20;;;17.70;99.90;;;;;;5022290;28;20046;-77
2022/09/13 04:45:14;;;;;;;29.05;18.77;;;17.80;99.90;;;;;;4994432;28;20042;-78
2022/09/13 04:47:42;;;;;;;26.38;19.20;;;17.70;99.90;;;;;;4999941;28;20045;-78
2022/09/13 04:50:09;;;;;;;27.02;20.00;;;17.70;99.90;;;;;;4997234;28;20096;-78
2022/09/13 04:52:34;;;;;;;24.75;18.90;;;17.70;99.90;;;;;;5008531;28;20049;-77
2022/09/13 04:55:01;;;;;;;25.10;20.20;;;17.80;99.90;;;;;;5012729;28;20065;-77
2022/09/13 04:57:28;;;;;;;26.20;18.45;;;17.70;99.90;;;;;;5015397;28;20050;-78
2022/09/13 04:59:53;;;;;;;25.75;20.05;;;17.70;99.90;;;;;;5019390;28;20034;-78
2022/09/13 05:02:19;;;;;;;25.95;19.77;;;17.70;99.90;;;;;;4987838;28;20400;-77
2022/09/13 05:04:49;;;;;;;25.00;19.13;;;17.80;99.90;;;;;;4996973;28;20117;-77
2022/09/13 05:07:15;;;;;;;27.35;20.13;;;17.60;99.90;;;;;;5011324;28;20045;-76
2022/09/13 05:09:42;;;;;;;25.33;18.90;;;17.70;99.90;;;;;;4993977;28;20022;-76
2022/09/13 05:12:08;;;;;;;25.55;18.77;;;17.90;99.90;;;;;;4999776;28;20495;-76
2022/09/13 05:14:34;;;;;;;25.33;18.63;;;17.80;99.90;;;;;;4990385;28;20708;-76
2022/09/13 05:16:59;;;;;;;23.90;18.63;;;17.70;99.90;;;;;;5009604;28;20034;-77
2022/09/13 05:19:25;;;;;;;26.52;19.90;;;17.80;99.90;;;;;;5011158;28;20046;-76
2022/09/13 05:21:55;;;;;;;27.98;19.08;;;17.80;99.90;;;;;;5015265;28;20062;-76
2022/09/13 05:24:22;;;;;;;25.70;18.60;;;17.80;99.90;;;;;;5026762;28;20076;-76
2022/09/13 05:26:54;;;;;;;25.98;18.33;;;17.80;99.90;;;;;;5012608;28;20044;-76
2022/09/13 05:29:20;;;;;;;25.25;17.58;;;17.80;99.90;;;;;;5015701;28;21957;-76
2022/09/13 05:32:03;;;;;;;22.75;17.42;;;17.80;99.90;;;;;;5016143;28;20033;-77
2022/09/13 05:34:33;;;;;;;20.55;14.80;;;17.90;99.90;;;;;;5008252;28;20111;-79
2022/09/13 05:37:00;;;;;;;21.10;16.05;;;17.90;99.90;;;;;;5010948;28;20492;-78
2022/09/13 05:39:28;;;;;;;18.83;14.27;;;17.80;99.90;;;;;;5011675;28;20077;-77
2022/09/13 05:41:55;;;;;;;18.20;13.55;;;17.90;99.90;;;;;;4995238;28;20084;-77
2022/09/13 05:44:21;;;;;;;17.08;13.20;;;18.00;99.90;;;;;;5014475;28;20496;-77
2022/09/13 05:46:47;;;;;;;16.52;12.05;;;18.00;99.90;;;;;;5012411;28;20041;-77
2022/09/13 05:49:13;;;;;;;18.92;12.23;;;18.00;99.90;;;;;;5022593;28;20048;-76
2022/09/13 05:51:48;;;;;;;14.55;11.73;;;18.00;99.90;;;;;;5008481;28;20038;-76
2022/09/13 05:54:14;;;;;;;12.10;9.90;;;18.00;99.90;;;;;;5019530;28;20085;-76
2022/09/13 05:56:40;;;;;;;14.30;10.27;;;18.00;99.90;;;;;;5007511;28;20189;-77
2022/09/13 05:59:13;;;;;;;12.20;8.60;;;18.00;99.90;;;;;;5014490;28;20033;-75
2022/09/13 06:01:44;;;;;;;10.77;7.90;;;18.00;99.90;;;;;;5005080;28;20492;-77
2022/09/13 06:04:11;;;;;;;11.38;7.57;;;18.00;99.90;;;;;;5005346;28;20037;-76
2022/09/13 06:06:37;;;;;;;10.75;6.50;;;18.00;99.90;;;;;;5010410;28;20127;-76
2022/09/13 06:09:10;;;;;;;8.57;6.50;;;18.00;99.90;;;;;;5011701;28;20076;-76
2022/09/13 06:11:41;;;;;;;12.38;6.90;;;18.10;99.90;;;;;;5002031;28;20046;-76
2022/09/13 06:14:06;;;;;;;9.50;6.78;;;18.10;99.90;;;;;;5015068;28;20049;-77
2022/09/13 06:16:35;;;;;;;9.25;6.35;;;18.10;99.90;;;;;;4998042;28;20038;-76
2022/09/13 06:19:01;;;;;;;11.63;6.35;;;18.20;99.90;;;;;;5018750;28;20049;-76
2022/09/13 06:21:28;;;;;;;9.98;5.35;;;18.20;99.90;;;;;;5012493;28;20042;-74
2022/09/13 06:23:59;;;;;;;9.02;5.30;;;18.20;99.90;;;;;;4998350;28;20046;-76
2022/09/13 06:26:27;;;;;;;6.00;4.40;;;18.10;99.90;;;;;;5015225;28;20434;-77
2022/09/13 06:28:55;;;;;;;7.05;4.50;;;18.20;99.90;;;;;;5014015;28;20054;-77
2022/09/13 06:31:23;;;;;;;7.18;4.35;;;18.20;99.90;;;;;;5017939;28;20038;-77
2022/09/13 06:33:56;;;;;;;6.75;4.20;;;18.20;99.90;;;;;;5012574;28;20448;-77
2022/09/13 06:36:22;;;;;;;7.43;3.70;;;18.20;99.90;;;;;;5009042;28;20085;-77
2022/09/13 06:38:48;;;;;;;6.32;3.53;;;18.20;99.90;;;;;;5017893;28;20411;-77
2022/09/13 06:41:17;;;;;;;6.07;3.53;;;18.20;99.90;;;;;;5020233;28;20052;-77
2022/09/13 06:43:43;;;;;;;7.93;3.10;;;18.30;99.90;;;;;;5000797;28;20041;-77
2022/09/13 06:46:17;;;;;;;6.93;2.95;;;18.20;99.90;;;;;;5015654;28;20085;-76
2022/09/13 06:48:44;;;;;;;9.32;2.97;;;18.20;99.90;;;;;;5016448;28;20065;-77
2022/09/13 06:51:13;;;;;;;4.97;2.83;;;18.20;99.90;;;;;;5015864;28;20452;-77
2022/09/13 06:53:40;;;;;;;3.70;2.50;;;18.20;99.90;;;;;;5013901;28;20037;-77
2022/09/13 06:56:10;;;;;;;4.53;2.40;;;18.20;99.90;;;;;;5016540;28;20404;-77
2022/09/13 06:58:38;;;;;;;6.60;2.25;;;18.20;99.90;;;;;;5024146;28;20073;-77
2022/09/13 07:01:10;;;;;;;3.80;2.30;;;18.30;99.90;;;;;;5017379;28;20384;-77
2022/09/13 07:03:43;;;;;;;3.78;2.08;;;18.30;99.90;;;;;;5012449;28;20037;-75
2022/09/13 07:06:16;;;;;;;5.03;1.98;;;18.20;99.90;;;;;;5000526;28;20042;-76
2022/09/13 07:08:43;;;;;;;3.75;2.00;;;18.30;99.90;;;;;;5016421;28;20088;-76
2022/09/13 07:11:11;;;;;;;3.75;2.20;;;18.30;99.90;;;;;;5017520;28;20034;-76
2022/09/13 07:13:37;;;;;;;4.57;1.80;;;18.30;99.90;;;;;;5017859;28;20404;-75
2022/09/13 07:16:10;;;;;;;4.03;1.90;;;18.40;99.90;;;;;;4996765;28;20057;-76
2022/09/13 07:18:37;;;;;;;4.13;1.92;;;18.50;99.90;;;;;;5019169;28;20053;-76
2022/09/13 07:21:08;;;;;;;3.60;1.77;;;18.30;99.90;;;;;;5018712;28;20175;-76
2022/09/13 07:23:38;;;;;;;4.22;1.65;;;18.30;99.90;;;;;;5016519;28;20034;-75
2022/09/13 07:26:06;;;;;;;3.47;1.70;;;18.30;99.90;;;;;;4999905;28;20410;-76
2022/09/13 07:28:41;;;;;;;2.45;1.77;;;18.30;99.90;;;;;;5015152;28;20045;-74
2022/09/13 07:31:12;;;;;;;4.03;1.88;;;18.40;99.90;;;;;;5011975;28;20073;-76
2022/09/13 07:33:39;;;;;;;4.77;2.10;;;18.30;99.90;;;;;;5024986;28;20511;-76
2022/09/13 07:36:06;;;;;;;7.57;2.25;;;18.50;99.90;;;;;;5015389;28;20118;-76
2022/09/13 07:38:37;;;;;;;3.45;2.10;;;18.50;99.90;;;;;;5015719;28;20046;-74
2022/09/13 07:41:05;;;;;;;8.27;2.17;;;18.50;99.90;;;;;;5014625;28;20104;-77
2022/09/13 07:43:35;;;;;;;4.40;2.33;;;18.50;99.90;;;;;;5029009;28;20152;-76
2022/09/13 07:46:02;;;;;;;3.65;1.85;;;18.50;99.90;;;;;;5012467;28;20034;-76
2022/09/13 07:48:33;;;;;;;3.15;1.88;;;18.60;99.90;;;;;;5022415;28;20041;-75
2022/09/13 07:51:04;;;;;;;5.75;1.90;;;18.60;99.90;;;;;;5019424;28;20041;-76
2022/09/13 07:53:32;;;;;;;3.90;2.10;;;18.60;99.90;;;;;;5028389;28;20542;-77
2022/09/13 07:56:06;;;;;;;2.88;2.15;;;18.70;99.90;;;;;;5018545;28;20041;-76
2022/09/13 07:58:36;;;;;;;3.72;2.30;;;18.60;99.90;;;;;;5007594;28;20038;-81
2022/09/13 08:01:07;;;;;;;2.83;2.00;;;18.70;99.90;;;;;;4981664;28;20142;-80
2022/09/13 08:03:34;;;;;;;6.82;2.53;;;18.80;99.90;;;;;;5004921;28;20444;-77
2022/09/13 08:06:03;;;;;;;7.97;2.30;;;18.80;99.90;;;;;;4994369;28;20034;-76
2022/09/13 08:08:29;;;;;;;6.30;2.28;;;18.80;99.90;;;;;;5006203;28;20069;-77
2022/09/13 08:10:56;;;;;;;8.02;2.35;;;18.80;99.90;;;;;;5001919;28;20049;-76
2022/09/13 08:13:25;;;;;;;4.70;2.47;;;18.80;99.90;;;;;;5001456;28;20045;-77
2022/09/13 08:15:51;;;;;;;5.93;2.40;;;18.80;99.90;;;;;;5015283;28;20046;-76
2022/09/13 08:18:17;;;;;;;5.03;2.17;;;18.90;99.90;;;;;;4997704;28;20408;-76
2022/09/13 08:20:44;;;;;;;6.57;2.80;;;18.90;99.90;;;;;;5012931;28;20104;-76
2022/09/13 08:23:11;;;;;;;6.53;2.35;;;19.00;99.90;;;;;;5009187;28;20796;-76
2022/09/13 08:25:37;;;;;;;7.70;1.95;;;19.00;99.90;;;;;;5027203;28;20168;-76
2022/09/13 08:28:14;;;;;;;2.85;1.80;;;19.10;99.90;;;;;;5012727;28;20506;-77
2022/09/13 08:30:42;;;;;;;5.38;2.00;;;19.10;99.90;;;;;;5012795;28;20038;-76
2022/09/13 08:33:08;;;;;;;4.78;1.85;;;19.10;99.90;;;;;;5011374;28;20110;-76
2022/09/13 08:35:34;;;;;;;4.68;1.80;;;19.00;99.90;;;;;;5010542;28;20046;-77
2022/09/13 08:38:00;;;;;;;4.65;1.55;;;19.00;99.90;;;;;;5001025;28;20045;-77
2022/09/13 08:40:33;;;;;;;5.25;1.70;;;19.00;99.90;;;;;;5008353;28;20042;-77
2022/09/13 08:43:11;;;;;;;5.45;1.60;;;19.00;99.90;;;;;;4995159;28;20137;-76
2022/09/13 08:45:36;;;;;;;4.32;1.75;;;19.00;99.90;;;;;;5007063;28;20052;-77
2022/09/13 08:48:15;;;;;;;4.78;1.55;;;19.00;99.90;;;;;;4998900;28;20046;-77
2022/09/13 08:50:43;;;;;;;4.05;1.25;;;19.00;99.90;;;;;;5011059;28;20389;-78
2022/09/13 08:53:26;;;;;;;4.47;1.58;;;19.10;99.90;;;;;;5002243;28;20040;-77
2022/09/13 08:56:10;;;;;;;2.95;1.25;;;19.10;99.90;;;;;;5011646;28;20706;-77
2022/09/13 08:58:54;;;;;;;8.95;1.50;;;19.20;99.90;;;;;;5010613;28;20034;-76
2022/09/13 09:01:20;;;;;;;5.82;1.70;;;19.20;99.90;;;;;;4993037;28;20034;-77
2022/09/13 09:04:00;;;;;;;3.95;1.30;;;19.30;99.90;;;;;;5010750;28;20041;-77
2022/09/13 09:06:27;;;;;;;6.85;1.60;;;19.20;99.90;;;;;;5001246;28;20408;-77
2022/09/13 09:09:05;;;;;;;6.35;1.65;;;19.10;99.90;;;;;;4996047;28;20454;-77
2022/09/13 09:12:19;;;;;;;4.25;1.60;;;19.20;99.90;;;;;;4993693;28;20046;-77
2022/09/13 09:14:59;;;;;;;5.68;1.40;;;19.20;99.90;;;;;;4992340;28;20053;-77
2022/09/13 09:17:34;;;;;;;6.38;1.50;;;19.30;99.90;;;;;;5010952;28;20137;-79
2022/09/13 09:20:35;;;;;;;2.85;1.40;;;19.30;99.90;;;;;;5002255;28;20038;-78
2022/09/13 09:23:13;;;;;;;4.90;1.52;;;19.30;99.90;;;;;;5017784;28;20034;-78
2022/09/13 09:25:38;;;;;;;4.00;1.50;;;19.50;99.90;;;;;;5011012;28;20045;-78
2022/09/13 09:28:17;;;;;;;5.18;1.70;;;19.70;99.90;;;;;;5006705;28;20042;-77
2022/09/13 09:30:56;;;;;;;4.68;1.42;;;19.90;99.90;;;;;;4994157;28;20065;-78
2022/09/13 09:33:49;;;;;;;5.25;1.40;;;20.00;99.90;;;;;;5016846;28;20515;-77
2022/09/13 09:36:42;;;;;;;3.85;1.30;;;19.90;99.90;;;;;;4990291;28;20033;-77
2022/09/13 09:39:31;;;;;;;5.85;1.70;;;19.90;99.90;;;;;;5006407;28;20102;-77
2022/09/13 09:41:57;;;;;;;3.38;1.30;;;20.10;99.90;;;;;;4997684;28;20041;-77
2022/09/13 09:44:26;;;;;;;5.50;1.40;;;20.20;99.90;;;;;;4996898;28;20034;-77
2022/09/13 09:47:19;;;;;;;4.90;1.20;;;20.30;99.90;;;;;;5020109;28;20065;-77
2022/09/13 09:50:15;;;;;;;6.40;1.38;;;20.40;99.90;;;;;;4993679;28;20078;-78
2022/09/13 09:53:05;;;;;;;5.85;1.48;;;20.40;99.90;;;;;;4996185;28;20346;-78
2022/09/13 09:55:43;;;;;;;2.92;1.27;;;20.30;99.90;;;;;;5018095;28;20120;-77
2022/09/13 09:58:15;;;;;;;5.88;1.27;;;20.50;99.90;;;;;;5020072;28;20072;-77
2022/09/13 10:00:52;;;;;;;3.92;1.30;;;20.70;99.90;;;;;;5012844;28;20524;-78
2022/09/13 10:03:20;;;;;;;4.45;1.00;;;21.00;99.90;;;;;;5002801;28;20049;-77
2022/09/13 10:05:46;;;;;;;2.67;1.20;;;21.20;99.90;;;;;;5010256;28;20030;-77
2022/09/13 10:08:32;;;;;;;2.20;1.02;;;21.40;99.90;;;;;;5006246;28;20041;-77
2022/09/13 10:11:21;;;;;;;7.15;1.42;;;21.50;99.90;;;;;;4996712;28;20046;-78
2022/09/13 10:14:03;;;;;;;5.45;1.23;;;21.60;99.90;;;;;;5006342;28;20038;-77
2022/09/13 10:16:30;;;;;;;3.50;1.25;;;21.70;99.90;;;;;;5024112;28;20124;-77
2022/09/13 10:19:36;;;;;;;4.45;1.10;;;21.70;99.90;;;;;;5006152;28;20502;-77
2022/09/13 10:22:11;;;;;;;2.63;1.00;;;21.50;99.90;;;;;;4976978;28;20365;-77
2022/09/13 10:24:37;;;;;;;4.35;1.15;;;21.60;99.90;;;;;;4976995;28;20049;-77
2022/09/13 10:27:18;;;;;;;1.05;0.70;;;21.60;99.90;;;;;;5009563;28;20504;-77
2022/09/13 10:29:49;;;;;;;5.60;1.00;;;21.70;99.90;;;;;;5015769;28;20066;-76
2022/09/13 10:32:18;;;;;;;2.13;0.93;;;21.80;99.90;;;;;;5007209;28;20045;-77
2022/09/13 10:34:46;;;;;;;3.58;1.00;;;22.00;99.90;;;;;;5014301;28;20109;-77
2022/09/13 10:37:21;;;;;;;2.70;1.00;;;22.00;99.90;;;;;;5014436;28;20072;-76
2022/09/13 10:39:57;;;;;;;2.33;1.10;;;21.90;99.90;;;;;;4995111;28;20054;-76
2022/09/13 10:42:57;;;;;;;2.15;0.98;;;22.00;99.90;;;;;;5006028;28;20120;-77
2022/09/13 10:45:53;;;;;;;4.13;1.20;;;22.10;99.90;;;;;;4992258;28;20092;-77
2022/09/13 10:48:23;;;;;;;4.95;1.10;;;22.10;99.90;;;;;;4994126;28;20040;-78
2022/09/13 10:51:20;;;;;;;3.17;1.17;;;22.00;99.90;;;;;;4992869;28;20053;-77
2022/09/13 10:53:47;;;;;;;2.95;1.00;;;22.10;99.90;;;;;;5009885;28;20066;-77
2022/09/13 10:56:24;;;;;;;3.92;1.17;;;22.10;99.90;;;;;;5011983;28;20050;-77
2022/09/13 10:59:13;;;;;;;4.10;1.13;;;22.20;99.90;;;;;;5012806;28;20050;-78
2022/09/13 11:02:01;;;;;;;1.52;0.85;;;22.30;99.90;;;;;;5028267;28;20030;-78
2022/09/13 11:04:46;;;;;;;1.63;0.90;;;22.50;99.90;;;;;;4999488;28;20037;-78
2022/09/13 11:07:38;;;;;;;2.42;1.20;;;22.70;99.90;;;;;;4998399;28;20044;-78
2022/09/13 11:10:19;;;;;;;3.15;1.00;;;22.80;99.90;;;;;;4997154;28;20091;-77
2022/09/13 11:13:14;;;;;;;2.20;0.90;;;22.90;99.90;;;;;;5003053;28;20093;-77
2022/09/13 11:16:02;;;;;;;2.00;0.88;;;22.90;99.90;;;;;;5021007;28;20026;-78
2022/09/13 11:19:01;;;;;;;3.53;1.00;;;22.70;99.90;;;;;;5022400;28;20423;-77
2022/09/13 11:21:45;;;;;;;10.38;1.48;;;22.50;99.90;;;;;;5010597;28;20034;-77
2022/09/13 11:24:48;;;;;;;2.85;1.25;;;22.30;99.90;;;;;;5009533;28;20259;-78
2022/09/13 11:27:49;;;;;;;3.57;1.37;;;22.20;99.90;;;;;;5020243;28;20038;-77
2022/09/13 11:30:20;;;;;;;2.65;0.90;;;22.30;99.90;;;;;;5014063;28;20291;-77
2022/09/13 11:33:19;;;;;;;5.10;1.15;;;22.50;99.90;;;;;;5016158;28;20038;-78
2022/09/13 11:36:02;;;;;;;3.80;0.90;;;22.70;99.90;;;;;;5015703;28;20049;-77
2022/09/13 11:39:27;;;;;;;1.40;0.80;;;22.80;99.90;;;;;;5023266;28;20042;-78
2022/09/13 11:41:59;;;;;;;1.88;0.80;;;22.90;99.00;;;;;;4981844;28;20053;-77
2022/09/13 11:44:46;;;;;;;2.22;0.80;;;22.90;99.10;;;;;;5013614;28;20034;-77
2022/09/13 11:47:19;;;;;;;6.55;1.10;;;22.90;98.10;;;;;;5010339;28;20033;-77
2022/09/13 11:50:32;;;;;;;3.88;0.85;;;22.90;98.50;;;;;;5013077;28;20415;-77
2022/09/13 11:53:40;;;;;;;9.25;1.20;;;22.80;98.30;;;;;;4956151;28;20042;-77
2022/09/13 11:56:31;;;;;;;2.90;1.08;;;22.80;98.70;;;;;;5020506;28;20500;-77
2022/09/13 11:59:34;;;;;;;6.18;1.05;;;22.80;99.20;;;;;;4993611;28;20038;-77
2022/09/13 12:02:10;;;;;;;1.92;0.75;;;22.80;98.60;;;;;;4996567;28;20038;-77
2022/09/13 12:05:14;;;;;;;4.28;1.00;;;22.90;98.60;;;;;;4994800;28;20116;-79
2022/09/13 12:07:48;;;;;;;3.72;0.90;;;22.90;98.50;;;;;;5005607;28;20080;-78
2022/09/13 12:10:26;;;;;;;3.83;1.02;;;22.80;98.90;;;;;;5018783;28;20116;-78
2022/09/13 12:12:55;;;;;;;4.90;0.90;;;22.60;98.70;;;;;;4990934;28;20045;-78
2022/09/13 12:15:44;;;;;;;3.53;1.00;;;22.60;98.80;;;;;;5011792;28;20447;-78
2022/09/13 12:18:25;;;;;;;2.17;0.77;;;22.70;98.70;;;;;;5011666;28;20045;-77
2022/09/13 12:20:57;;;;;;;3.83;1.20;;;22.80;98.60;;;;;;5011088;28;20116;-77
2022/09/13 12:23:31;;;;;;;7.50;1.17;;;22.90;97.90;;;;;;4996423;28;20113;-78
2022/09/13 12:26:05;;;;;;;3.42;1.00;;;23.10;97.90;;;;;;5018878;28;20119;-78
2022/09/13 12:28:45;;;;;;;3.22;1.00;;;23.20;97.10;;;;;;5010720;28;20044;-78
2022/09/13 12:31:29;;;;;;;3.25;1.02;;;23.20;96.50;;;;;;4995005;28;20037;-76
2022/09/13 12:33:56;;;;;;;3.45;1.00;;;23.20;95.70;;;;;;5011668;28;20033;-77
2022/09/13 12:36:31;;;;;;;6.18;1.00;;;23.30;96.00;;;;;;4993334;28;20033;-78
2022/09/13 12:39:43;;;;;;;4.32;1.10;;;23.40;95.20;;;;;;5018017;28;20041;-78
2022/09/13 12:42:38;;;;;;;2.58;0.90;;;23.40;94.60;;;;;;5010460;28;20045;-77
2022/09/13 12:45:28;;;;;;;;;;;23.50;95.10;;;;;;5030518;28;20466;-77
2022/09/13 12:48:07;;;;;;;4.13;1.25;;;23.50;95.00;;;;;;5011762;28;20016;-77
2022/09/13 12:50:48;;;;;;;5.47;1.13;;;23.50;95.60;;;;;;4996243;28;20067;-77
2022/09/13 12:53:35;;;;;;;3.78;1.10;;;23.60;95.30;;;;;;5003288;28;20047;-77
2022/09/13 12:56:36;;;;;;;5.72;1.05;;;23.50;94.80;;;;;;4994074;28;20044;-77
2022/09/13 12:59:19;;;;;;;5.75;1.35;;;23.50;94.20;;;;;;4996317;28;20042;-77
2022/09/13 13:01:48;;;;;;;5.22;1.02;;;23.50;94.80;;;;;;5010613;28;20049;-77
2022/09/13 13:04:25;;;;;;;3.20;1.05;;;23.40;94.30;;;;;;5002068;28;20037;-77
2022/09/13 13:06:53;;;;;;;4.32;1.00;;;23.30;93.70;;;;;;5014557;28;20041;-77
2022/09/13 13:09:41;;;;;;;5.80;1.30;;;23.20;93.60;;;;;;5004744;28;20044;-77
2022/09/13 13:12:23;;;;;;;3.10;0.93;;;23.10;94.00;;;;;;5024095;28;20129;-77
2022/09/13 13:14:52;;;;;;;2.50;0.98;;;23.00;94.60;;;;;;5028917;28;20046;-78
2022/09/13 13:17:37;;;;;;;4.57;1.40;;;23.00;94.70;;;;;;5011809;28;20045;-77
2022/09/13 13:20:40;;;;;;;3.53;1.00;;;23.10;94.20;;;;;;5000908;28;20489;-80
2022/09/13 13:23:33;;;;;;;2.97;0.90;;;23.20;93.90;;;;;;5016833;28;20044;-77